Time;durP1;ratioP1;P1;durP2;ratioP2;P2;SDS_P1;SDS_P2;PMS_P1;PMS_P2;Temp;Humidity;BMP_temperature;BMP_pressure;BME280_temperature;BME280_humidity;BME280_pressure;Samples;Min_cycle;Max_cycle;Signal;HPM_P1;HPM_P2
2021/09/10 00:02:07;;;;;;;1122.82;999.90;;;;;;;;;;5005789;28;20025;-75
2021/09/10 00:04:33;;;;;;;1124.35;999.90;;;;;;;;;;4996463;28;20030;-76
2021/09/10 00:06:59;;;;;;;1125.00;999.90;;;;;;;;;;5002861;28;20481;-76
2021/09/10 00:09:25;;;;;;;1125.03;999.90;;;;;;;;;;5025009;28;20025;-76
2021/09/10 00:11:51;;;;;;;1127.68;999.90;;;;;;;;;;5030043;28;20075;-76
2021/09/10 00:14:17;;;;;;;1122.38;999.90;;;;;;;;;;5010328;28;20493;-76
2021/09/10 00:16:43;;;;;;;1122.50;999.90;;;;;;;;;;5024005;28;20025;-77
2021/09/10 00:19:09;;;;;;;1122.55;999.90;;;;;;;;;;5019045;28;20026;-76
2021/09/10 00:21:35;;;;;;;1124.57;999.90;;;;;;;;;;5026891;28;20021;-77
2021/09/10 00:24:01;;;;;;;1116.97;999.90;;;;;;;;;;5013803;28;20032;-75
2021/09/10 00:26:27;;;;;;;1120.72;999.90;;;;;;;;;;5039343;28;20121;-76
2021/09/10 00:28:53;;;;;;;1118.40;999.90;;;;;;;;;;5023120;28;20021;-76
2021/09/10 00:31:19;;;;;;;1116.78;999.90;;;;;;;;;;5015975;28;20046;-76
2021/09/10 00:33:45;;;;;;;1109.38;999.80;;;;;;;;;;5007711;28;20030;-75
2021/09/10 00:36:11;;;;;;;1113.03;999.90;;;;;;;;;;5006063;28;20029;-75
2021/09/10 00:38:37;;;;;;;1113.15;999.90;;;;;;;;;;5006456;28;20079;-77
2021/09/10 00:41:03;;;;;;;1117.20;999.90;;;;;;;;;;5013099;28;20021;-76
2021/09/10 00:43:29;;;;;;;1108.05;999.35;;;;;;;;;;4997223;28;20548;-76
2021/09/10 00:45:57;;;;;;;1111.65;999.70;;;;;;;;;;5013900;28;20029;-77
2021/09/10 00:48:23;;;;;;;1106.32;998.83;;;;;;;;;;4997082;28;20426;-77
2021/09/10 00:50:49;;;;;;;1113.53;999.90;;;;;;;;;;5013784;28;20377;-77
2021/09/10 00:53:16;;;;;;;1108.40;999.50;;;;;;;;;;5013190;28;20033;-77
2021/09/10 00:55:43;;;;;;;1108.10;999.28;;;;;;;;;;5026157;28;20083;-76
2021/09/10 00:58:09;;;;;;;1114.15;999.90;;;;;;;;;;5001059;28;20490;-77
2021/09/10 01:00:35;;;;;;;1114.30;999.90;;;;;;;;;;5021395;28;20064;-76
2021/09/10 01:03:01;;;;;;;1106.90;999.08;;;;;;;;;;5008672;28;20472;-76
2021/09/10 01:05:27;;;;;;;1106.43;998.95;;;;;;;;;;5012573;28;20029;-77
2021/09/10 01:07:54;;;;;;;1107.07;999.13;;;;;;;;;;5024638;28;20033;-76
2021/09/10 01:10:20;;;;;;;1107.43;999.08;;;;;;;;;;5015763;28;20048;-77
2021/09/10 01:12:47;;;;;;;1106.47;998.92;;;;;;;;;;5027620;28;20037;-77
2021/09/10 01:15:13;;;;;;;1106.25;999.42;;;;;;;;;;5015605;28;20033;-77
2021/09/10 01:17:39;;;;;;;1100.22;996.15;;;;;;;;;;5034173;28;20025;-76
2021/09/10 01:20:06;;;;;;;1102.50;996.83;;;;;;;;;;5009172;28;20112;-76
2021/09/10 01:22:32;;;;;;;1102.40;997.58;;;;;;;;;;5008726;28;20040;-77
2021/09/10 01:25:03;;;;;;;1113.20;999.90;;;;;;;;;;5024829;28;20428;-76
2021/09/10 01:27:29;;;;;;;1107.03;999.17;;;;;;;;;;5013032;28;20112;-76
2021/09/10 01:29:55;;;;;;;1103.25;998.38;;;;;;;;;;5012343;28;20036;-76
2021/09/10 01:32:21;;;;;;;1103.78;997.78;;;;;;;;;;5011872;28;20087;-76
2021/09/10 01:34:47;;;;;;;1099.97;995.83;;;;;;;;;;5016521;28;20026;-77
2021/09/10 01:37:13;;;;;;;1097.07;993.63;;;;;;;;;;5008007;28;20022;-76
2021/09/10 01:39:39;;;;;;;1093.93;990.42;;;;;;;;;;5024661;28;20026;-76
2021/09/10 01:42:05;;;;;;;1096.68;993.17;;;;;;;;;;5008185;28;20040;-76
2021/09/10 01:44:31;;;;;;;1095.07;991.75;;;;;;;;;;5022060;28;20100;-77
2021/09/10 01:46:57;;;;;;;1097.18;993.78;;;;;;;;;;5008546;28;20041;-76
2021/09/10 01:49:23;;;;;;;1096.07;992.65;;;;;;;;;;5010489;28;20025;-77
2021/09/10 01:51:49;;;;;;;1104.55;997.50;;;;;;;;;;5016051;28;20591;-76
2021/09/10 01:54:15;;;;;;;1101.82;996.95;;;;;;;;;;5024708;28;20462;-77
2021/09/10 01:56:41;;;;;;;1098.65;995.00;;;;;;;;;;5020558;28;20469;-77
2021/09/10 01:59:07;;;;;;;1101.68;997.13;;;;;;;;;;5008703;28;20529;-76
2021/09/10 02:01:34;;;;;;;1102.07;997.40;;;;;;;;;;5012787;28;20029;-76
2021/09/10 02:04:00;;;;;;;1103.45;997.90;;;;;;;;;;5023883;28;20075;-76
2021/09/10 02:06:26;;;;;;;1095.03;991.95;;;;;;;;;;5024534;28;20021;-76
2021/09/10 02:08:52;;;;;;;1094.78;991.63;;;;;;;;;;5021235;28;20064;-76
2021/09/10 02:11:18;;;;;;;1091.35;988.58;;;;;;;;;;5024121;28;20030;-76
2021/09/10 02:13:44;;;;;;;1097.70;994.13;;;;;;;;;;5006990;28;20394;-75
2021/09/10 02:16:11;;;;;;;1098.30;994.78;;;;;;;;;;5021701;28;20026;-77
2021/09/10 02:18:37;;;;;;;1088.93;986.15;;;;;;;;;;5008095;28;20616;-77
2021/09/10 02:21:03;;;;;;;1102.18;997.40;;;;;;;;;;5019362;28;20022;-76
2021/09/10 02:23:29;;;;;;;1086.60;984.00;;;;;;;;;;5014181;28;20037;-76
2021/09/10 02:25:56;;;;;;;1088.70;985.97;;;;;;;;;;5008497;28;20561;-76
2021/09/10 02:28:22;;;;;;;1101.80;996.88;;;;;;;;;;5024590;28;20409;-76
2021/09/10 02:30:48;;;;;;;1094.57;991.28;;;;;;;;;;5022147;28;20477;-77
2021/09/10 02:33:14;;;;;;;1100.50;995.85;;;;;;;;;;5022464;28;20026;-76
2021/09/10 02:35:40;;;;;;;1094.88;991.67;;;;;;;;;;4999039;28;20028;-76
2021/09/10 02:38:06;;;;;;;1092.95;990.00;;;;;;;;;;5012239;28;20033;-77
2021/09/10 02:40:32;;;;;;;1094.47;991.28;;;;;;;;;;5023998;28;20438;-76
2021/09/10 02:42:58;;;;;;;1089.93;986.97;;;;;;;;;;5025169;28;20065;-76
2021/09/10 02:45:24;;;;;;;1092.90;989.80;;;;;;;;;;5022719;28;20045;-76
2021/09/10 02:47:50;;;;;;;1104.28;997.80;;;;;;;;;;5014506;28;20025;-76
2021/09/10 02:50:16;;;;;;;1086.60;983.92;;;;;;;;;;5021441;28;20030;-76
2021/09/10 02:52:42;;;;;;;1095.32;991.72;;;;;;;;;;5021974;28;20037;-76
2021/09/10 02:55:08;;;;;;;1095.65;992.40;;;;;;;;;;5022527;28;20433;-76
2021/09/10 02:57:35;;;;;;;1099.68;995.65;;;;;;;;;;5023958;28;20053;-76
2021/09/10 03:00:01;;;;;;;1099.93;995.72;;;;;;;;;;5016748;28;20037;-76
2021/09/10 03:02:27;;;;;;;1086.50;983.83;;;;;;;;;;5024705;28;20040;-76
2021/09/10 03:04:53;;;;;;;1091.65;988.75;;;;;;;;;;5006057;28;20591;-76
2021/09/10 03:07:19;;;;;;;1084.43;981.42;;;;;;;;;;5021782;28;20454;-76
2021/09/10 03:09:45;;;;;;;1090.57;987.63;;;;;;;;;;5006563;28;20033;-76
2021/09/10 03:12:11;;;;;;;1096.03;992.40;;;;;;;;;;5004026;28;20034;-77
2021/09/10 03:14:37;;;;;;;1081.93;979.22;;;;;;;;;;5011146;28;20068;-76
2021/09/10 03:17:03;;;;;;;1090.47;987.33;;;;;;;;;;5029377;28;20099;-76
2021/09/10 03:19:29;;;;;;;1088.30;985.42;;;;;;;;;;5027964;28;20033;-76
2021/09/10 03:21:55;;;;;;;1086.72;983.78;;;;;;;;;;5028594;28;20095;-76
2021/09/10 03:24:21;;;;;;;1090.57;987.53;;;;;;;;;;5025478;28;20033;-76
2021/09/10 03:26:48;;;;;;;1090.63;987.70;;;;;;;;;;5026518;28;20070;-76
2021/09/10 03:29:14;;;;;;;1097.30;993.85;;;;;;;;;;5016117;28;20408;-76
2021/09/10 03:31:40;;;;;;;1093.20;990.10;;;;;;;;;;5001767;28;20160;-75
2021/09/10 03:34:06;;;;;;;1090.85;987.72;;;;;;;;;;5027692;28;20076;-76
2021/09/10 03:36:32;;;;;;;1086.40;983.40;;;;;;;;;;5026599;28;20335;-76
2021/09/10 03:38:58;;;;;;;1086.72;983.85;;;;;;;;;;5024885;28;20017;-77
2021/09/10 03:41:24;;;;;;;1084.75;982.22;;;;;;;;;;5017845;28;20533;-76
2021/09/10 03:43:52;;;;;;;1082.70;980.20;;;;;;;;;;5015596;28;20057;-77
2021/09/10 03:46:19;;;;;;;1082.43;979.90;;;;;;;;;;5010808;28;20532;-76
2021/09/10 03:48:45;;;;;;;1084.57;981.80;;;;;;;;;;5028020;28;20029;-76
2021/09/10 03:51:11;;;;;;;1081.97;978.60;;;;;;;;;;5018220;28;20543;-76
2021/09/10 03:53:38;;;;;;;1082.50;979.80;;;;;;;;;;5013439;28;20029;-76
2021/09/10 03:56:04;;;;;;;1078.25;975.83;;;;;;;;;;5002234;28;20037;-76
2021/09/10 03:58:30;;;;;;;1084.97;981.97;;;;;;;;;;5017695;28;20040;-77
2021/09/10 04:00:56;;;;;;;1084.78;981.88;;;;;;;;;;5005460;28;20061;-76
2021/09/10 04:03:22;;;;;;;1085.38;982.53;;;;;;;;;;5018934;28;20477;-76
2021/09/10 04:05:48;;;;;;;1087.80;984.47;;;;;;;;;;5008591;28;20486;-76
2021/09/10 04:08:14;;;;;;;1087.32;984.20;;;;;;;;;;5024831;28;20049;-76
2021/09/10 04:10:40;;;;;;;1084.30;981.15;;;;;;;;;;5009406;28;20731;-76
2021/09/10 04:13:06;;;;;;;1078.55;976.00;;;;;;;;;;5014691;28;20041;-76
2021/09/10 04:15:32;;;;;;;1089.60;986.40;;;;;;;;;;5018675;28;20551;-75
2021/09/10 04:17:58;;;;;;;1078.60;975.97;;;;;;;;;;5027300;28;20533;-77
2021/09/10 04:20:25;;;;;;;1082.18;979.47;;;;;;;;;;5026850;28;20027;-76
2021/09/10 04:22:50;;;;;;;1084.18;981.33;;;;;;;;;;5011039;28;20056;-76
2021/09/10 04:25:16;;;;;;;1075.22;972.97;;;;;;;;;;5012960;28;20389;-76
2021/09/10 04:27:42;;;;;;;1092.10;988.92;;;;;;;;;;5011482;28;20162;-76
2021/09/10 04:30:09;;;;;;;1080.45;977.90;;;;;;;;;;5007139;28;20026;-77
2021/09/10 04:32:35;;;;;;;1075.72;973.30;;;;;;;;;;5009843;28;20064;-76
2021/09/10 04:35:01;;;;;;;1079.40;976.80;;;;;;;;;;5026878;28;20462;-76
2021/09/10 04:37:27;;;;;;;1077.88;975.58;;;;;;;;;;5010643;28;20068;-76
2021/09/10 04:39:53;;;;;;;1077.55;974.95;;;;;;;;;;5021117;28;20320;-76
2021/09/10 04:42:19;;;;;;;1075.70;973.33;;;;;;;;;;5012203;28;20509;-76
2021/09/10 04:44:45;;;;;;;1080.78;978.08;;;;;;;;;;5017250;28;20045;-77
2021/09/10 04:47:11;;;;;;;1067.05;965.13;;;;;;;;;;5009920;28;20021;-76
2021/09/10 04:49:37;;;;;;;1082.78;979.97;;;;;;;;;;5024712;28;20559;-77
2021/09/10 04:52:03;;;;;;;1076.95;974.58;;;;;;;;;;5026798;28;20132;-76
2021/09/10 04:54:29;;;;;;;1077.57;975.08;;;;;;;;;;5026793;28;20022;-76
2021/09/10 04:56:54;;;;;;;1075.72;973.42;;;;;;;;;;5003807;28;20036;-75
2021/09/10 04:59:20;;;;;;;1076.25;973.83;;;;;;;;;;5024208;28;20337;-76
2021/09/10 05:01:47;;;;;;;1072.05;969.88;;;;;;;;;;5008104;28;20059;-76
2021/09/10 05:04:13;;;;;;;1079.57;977.10;;;;;;;;;;5018910;28;20481;-75
2021/09/10 05:06:39;;;;;;;1071.90;969.85;;;;;;;;;;5017644;28;20041;-75
2021/09/10 05:09:06;;;;;;;1079.15;976.55;;;;;;;;;;5014819;28;20116;-76
2021/09/10 05:11:32;;;;;;;1081.25;978.10;;;;;;;;;;5010017;28;20053;-75
2021/09/10 05:13:58;;;;;;;1091.60;987.92;;;;;;;;;;5014175;28;20111;-77
2021/09/10 05:16:23;;;;;;;1079.05;976.25;;;;;;;;;;5008699;28;20022;-75
2021/09/10 05:18:49;;;;;;;1080.63;977.88;;;;;;;;;;5027180;28;20239;-76
2021/09/10 05:21:15;;;;;;;1081.82;979.15;;;;;;;;;;5025626;28;20496;-76
2021/09/10 05:23:41;;;;;;;1089.47;986.30;;;;;;;;;;5019809;28;20021;-76
2021/09/10 05:26:07;;;;;;;1073.47;970.80;;;;;;;;;;5026691;28;20056;-77
2021/09/10 05:28:33;;;;;;;1084.60;981.50;;;;;;;;;;5022910;28;20035;-75
2021/09/10 05:30:59;;;;;;;1084.63;981.78;;;;;;;;;;5009629;28;20495;-75
2021/09/10 05:33:25;;;;;;;1085.10;982.08;;;;;;;;;;5007507;28;20025;-75
2021/09/10 05:35:51;;;;;;;1082.95;980.15;;;;;;;;;;5021954;28;20033;-76
2021/09/10 05:38:17;;;;;;;1088.85;985.90;;;;;;;;;;5014390;28;20021;-76
2021/09/10 05:40:43;;;;;;;1082.25;979.47;;;;;;;;;;5013468;28;20104;-76
2021/09/10 05:43:09;;;;;;;1095.55;992.15;;;;;;;;;;5025115;28;20029;-76
2021/09/10 05:45:35;;;;;;;1091.82;988.42;;;;;;;;;;5010539;28;20168;-75
2021/09/10 05:48:01;;;;;;;1079.13;976.42;;;;;;;;;;5004423;28;20026;-76
2021/09/10 05:50:27;;;;;;;1085.40;982.60;;;;;;;;;;5008350;28;20025;-76
2021/09/10 05:52:53;;;;;;;1095.93;992.55;;;;;;;;;;5024804;28;20044;-76
2021/09/10 05:55:19;;;;;;;1086.47;983.67;;;;;;;;;;5026333;28;20029;-76
2021/09/10 05:57:45;;;;;;;1083.50;980.70;;;;;;;;;;5024382;28;20026;-76
2021/09/10 06:00:12;;;;;;;1085.85;982.85;;;;;;;;;;5021908;28;20420;-76
2021/09/10 06:02:39;;;;;;;1084.70;981.88;;;;;;;;;;5011555;28;20576;-76
2021/09/10 06:05:05;;;;;;;1081.15;978.42;;;;;;;;;;5022922;28;20060;-76
2021/09/10 06:07:32;;;;;;;1086.07;983.10;;;;;;;;;;5022462;28;20029;-76
2021/09/10 06:09:58;;;;;;;1085.80;983.05;;;;;;;;;;5021203;28;20033;-76
2021/09/10 06:12:24;;;;;;;1086.47;983.67;;;;;;;;;;5025388;28;20056;-76
2021/09/10 06:14:50;;;;;;;1091.65;988.50;;;;;;;;;;5022002;28;20105;-76
2021/09/10 06:17:17;;;;;;;1095.72;992.22;;;;;;;;;;5025382;28;20116;-75
2021/09/10 06:19:43;;;;;;;1087.55;984.63;;;;;;;;;;5024740;28;20037;-76
2021/09/10 06:22:10;;;;;;;1096.00;992.95;;;;;;;;;;5022289;28;20037;-78
2021/09/10 06:24:37;;;;;;;1095.00;991.85;;;;;;;;;;5025738;28;20116;-76
2021/09/10 06:27:03;;;;;;;1093.50;990.17;;;;;;;;;;5024151;28;20034;-76
2021/09/10 06:29:29;;;;;;;1097.70;994.30;;;;;;;;;;5012002;28;20734;-75
2021/09/10 06:31:55;;;;;;;1100.07;996.05;;;;;;;;;;5009207;28;20156;-76
2021/09/10 06:34:22;;;;;;;1103.47;998.15;;;;;;;;;;5015541;28;20108;-76
2021/09/10 06:36:53;;;;;;;1088.97;986.03;;;;;;;;;;5008171;28;20050;-75
2021/09/10 06:39:19;;;;;;;1087.78;984.95;;;;;;;;;;5022203;28;20068;-75
2021/09/10 06:41:45;;;;;;;1097.00;993.40;;;;;;;;;;5011122;28;20045;-75
2021/09/10 06:44:11;;;;;;;1098.05;994.35;;;;;;;;;;5016046;28;20254;-76
2021/09/10 06:46:37;;;;;;;1099.95;995.50;;;;;;;;;;5025037;28;20057;-76
2021/09/10 06:49:04;;;;;;;1095.57;992.42;;;;;;;;;;5021335;28;20586;-76
2021/09/10 06:51:30;;;;;;;1103.97;998.10;;;;;;;;;;5027672;28;20014;-76
2021/09/10 06:53:56;;;;;;;1100.97;996.53;;;;;;;;;;5024876;28;20037;-76
2021/09/10 06:56:22;;;;;;;1098.30;994.70;;;;;;;;;;5027568;28;20354;-76
2021/09/10 06:58:48;;;;;;;1102.63;997.58;;;;;;;;;;5029571;28;20032;-75
2021/09/10 07:01:14;;;;;;;1110.25;999.20;;;;;;;;;;5026286;28;20450;-75
2021/09/10 07:03:40;;;;;;;1118.13;999.90;;;;;;;;;;5019643;28;20045;-76
2021/09/10 07:06:06;;;;;;;1113.63;999.90;;;;;;;;;;5013299;28;20040;-77
2021/09/10 07:08:35;;;;;;;1107.60;999.55;;;;;;;;;;5031227;28;20029;-75
2021/09/10 07:11:03;;;;;;;1118.63;999.90;;;;;;;;;;5031846;28;20037;-75
2021/09/10 07:13:29;;;;;;;1119.32;999.90;;;;;;;;;;5032182;28;20579;-75
2021/09/10 07:15:55;;;;;;;1126.22;999.90;;;;;;;;;;5024741;28;20461;-76
2021/09/10 07:18:21;;;;;;;1120.65;999.90;;;;;;;;;;5013706;28;20029;-76
2021/09/10 07:20:48;;;;;;;1126.13;999.90;;;;;;;;;;5013884;28;20406;-75
2021/09/10 07:23:15;;;;;;;1118.57;999.90;;;;;;;;;;5019542;28;20048;-75
2021/09/10 07:25:41;;;;;;;1131.15;999.90;;;;;;;;;;5015665;28;20039;-75
2021/09/10 07:28:07;;;;;;;1133.88;999.90;;;;;;;;;;5007613;28;20068;-75
2021/09/10 07:30:34;;;;;;;1128.75;999.90;;;;;;;;;;5026076;28;20060;-75
2021/09/10 07:33:00;;;;;;;1132.28;999.90;;;;;;;;;;5009551;28;20036;-75
2021/09/10 07:35:27;;;;;;;1128.38;999.90;;;;;;;;;;5025098;28;20184;-75
2021/09/10 07:37:55;;;;;;;1123.85;999.90;;;;;;;;;;5026251;28;20373;-75
2021/09/10 07:40:21;;;;;;;1132.20;999.90;;;;;;;;;;5024833;28;20014;-75
2021/09/10 07:42:47;;;;;;;1129.13;999.90;;;;;;;;;;5003276;28;20029;-76
2021/09/10 07:45:13;;;;;;;1131.43;999.90;;;;;;;;;;5003208;28;20128;-75
2021/09/10 07:47:40;;;;;;;1136.95;999.90;;;;;;;;;;5018414;28;20029;-75
2021/09/10 07:50:07;;;;;;;1119.22;999.90;;;;;;;;;;5009148;28;20026;-76
2021/09/10 07:52:33;;;;;;;1127.00;999.90;;;;;;;;;;5031221;28;20116;-75
2021/09/10 07:54:59;;;;;;;1129.28;999.90;;;;;;;;;;5030748;28;20869;-75
2021/09/10 07:57:25;;;;;;;1131.93;999.90;;;;;;;;;;5028358;28;20121;-75
2021/09/10 07:59:55;;;;;;;1135.78;999.90;;;;;;;;;;5027203;28;20026;-76
2021/09/10 08:02:28;;;;;;;1131.95;999.90;;;;;;;;;;5011343;28;20049;-75
2021/09/10 08:04:54;;;;;;;1125.88;999.90;;;;;;;;;;5007507;28;20033;-74
2021/09/10 08:07:20;;;;;;;1131.53;999.90;;;;;;;;;;5024676;28;20033;-75
2021/09/10 08:09:46;;;;;;;1128.18;999.90;;;;;;;;;;5029691;28;20037;-75
2021/09/10 08:12:12;;;;;;;1126.45;999.90;;;;;;;;;;5019635;28;20069;-75
2021/09/10 08:14:38;;;;;;;1134.15;999.90;;;;;;;;;;5030412;28;20034;-75
2021/09/10 08:17:05;;;;;;;1128.60;999.90;;;;;;;;;;5022861;28;20097;-74
2021/09/10 08:19:31;;;;;;;1128.43;999.90;;;;;;;;;;5020274;28;20382;-75
2021/09/10 08:21:57;;;;;;;1122.32;999.90;;;;;;;;;;5016659;28;20025;-76
2021/09/10 08:24:23;;;;;;;1125.18;999.90;;;;;;;;;;5031033;28;20083;-75
2021/09/10 08:26:49;;;;;;;1128.68;999.90;;;;;;;;;;5021106;28;20037;-75
2021/09/10 08:29:15;;;;;;;1130.00;999.90;;;;;;;;;;5026931;28;20060;-75
2021/09/10 08:31:41;;;;;;;1126.88;999.90;;;;;;;;;;5024184;28;20084;-76
2021/09/10 08:34:08;;;;;;;1121.47;999.90;;;;;;;;;;5030648;28;20052;-75
2021/09/10 08:36:34;;;;;;;1129.88;999.90;;;;;;;;;;5020707;28;20034;-75
2021/09/10 08:39:00;;;;;;;1137.47;999.90;;;;;;;;;;5020818;28;20064;-77
2021/09/10 08:41:27;;;;;;;1130.78;999.90;;;;;;;;;;5026323;28;20029;-76
2021/09/10 08:43:54;;;;;;;1135.28;999.90;;;;;;;;;;5006599;28;20045;-76
2021/09/10 08:46:20;;;;;;;1127.97;999.90;;;;;;;;;;5022267;28;20105;-76
2021/09/10 08:48:47;;;;;;;1135.22;999.90;;;;;;;;;;5002765;28;20129;-75
2021/09/10 08:51:14;;;;;;;1134.95;999.90;;;;;;;;;;5003913;28;20086;-73
2021/09/10 08:53:40;;;;;;;1147.45;999.90;;;;;;;;;;5008080;28;20439;-75
2021/09/10 08:56:06;;;;;;;1136.07;999.90;;;;;;;;;;5023928;28;20399;-75
2021/09/10 08:58:32;;;;;;;1143.43;999.90;;;;;;;;;;5022127;28;20030;-76
2021/09/10 09:01:01;;;;;;;1136.07;999.90;;;;;;;;;;5018743;28;20105;-75
2021/09/10 09:03:29;;;;;;;1125.13;999.90;;;;;;;;;;5006449;28;20022;-76
2021/09/10 09:05:55;;;;;;;1140.75;999.90;;;;;;;;;;5009854;28;20021;-75
2021/09/10 09:08:21;;;;;;;1147.18;999.90;;;;;;;;;;5030155;28;20522;-76
2021/09/10 09:10:57;;;;;;;1143.50;999.90;;;;;;;;;;5030176;28;20025;-74
2021/09/10 09:13:31;;;;;;;1133.15;999.90;;;;;;;;;;5008370;28;20029;-74
2021/09/10 09:16:16;;;;;;;1137.43;999.90;;;;;;;;;;5020964;28;20029;-75
2021/09/10 09:18:53;;;;;;;1138.70;999.90;;;;;;;;;;5009157;28;20091;-74
2021/09/10 09:21:33;;;;;;;1139.53;999.90;;;;;;;;;;5009065;28;20021;-75
2021/09/10 09:24:15;;;;;;;1142.28;999.90;;;;;;;;;;5032393;28;20025;-76
2021/09/10 09:26:41;;;;;;;1128.38;999.90;;;;;;;;;;5009154;28;20047;-75
2021/09/10 09:29:09;;;;;;;1145.82;999.90;;;;;;;;;;5009196;28;20417;-76
2021/09/10 09:31:36;;;;;;;1146.93;999.90;;;;;;;;;;5025625;28;20036;-76
2021/09/10 09:34:02;;;;;;;1144.53;999.90;;;;;;;;;;5009154;28;20061;-75
2021/09/10 09:36:29;;;;;;;1153.65;999.90;;;;;;;;;;5027509;28;20021;-76
2021/09/10 09:38:55;;;;;;;1162.50;999.90;;;;;;;;;;5002202;28;20140;-75
2021/09/10 09:41:22;;;;;;;1152.35;999.90;;;;;;;;;;5026781;28;20048;-75
2021/09/10 09:43:50;;;;;;;1166.45;999.90;;;;;;;;;;5008467;28;20503;-75
2021/09/10 09:46:21;;;;;;;1176.90;999.90;;;;;;;;;;5010594;28;20120;-75
2021/09/10 09:48:48;;;;;;;1172.88;999.90;;;;;;;;;;5024629;28;20116;-76
2021/09/10 09:51:18;;;;;;;1183.25;999.90;;;;;;;;;;5016345;28;20029;-76
2021/09/10 09:53:45;;;;;;;1178.28;999.90;;;;;;;;;;5026391;28;20032;-76
2021/09/10 09:56:11;;;;;;;1176.28;999.90;;;;;;;;;;5016104;28;20029;-75
2021/09/10 09:58:39;;;;;;;1185.97;999.90;;;;;;;;;;5026746;28;20026;-76
2021/09/10 10:01:05;;;;;;;1178.55;999.90;;;;;;;;;;5024055;28;20029;-76
2021/09/10 10:03:31;;;;;;;1182.03;999.90;;;;;;;;;;5026781;28;20398;-76
2021/09/10 10:06:01;;;;;;;1182.80;999.90;;;;;;;;;;5014740;28;20508;-76
2021/09/10 10:08:30;;;;;;;1191.22;999.90;;;;;;;;;;5026550;28;20024;-75
2021/09/10 10:11:04;;;;;;;1191.90;999.90;;;;;;;;;;5026712;28;20025;-76
2021/09/10 10:13:31;;;;;;;1202.60;999.90;;;;;;;;;;5025778;28;20033;-76
2021/09/10 10:15:58;;;;;;;1201.68;999.90;;;;;;;;;;5016258;28;20120;-76
2021/09/10 10:18:44;;;;;;;1210.15;999.90;;;;;;;;;;5026473;28;20397;-76
2021/09/10 10:21:11;;;;;;;1209.28;999.90;;;;;;;;;;5026366;28;20427;-75
2021/09/10 10:23:43;;;;;;;1205.95;999.90;;;;;;;;;;5012026;28;20041;-76
2021/09/10 10:26:28;;;;;;;1210.95;999.90;;;;;;;;;;5026192;28;20025;-75
2021/09/10 10:29:02;;;;;;;1201.45;999.90;;;;;;;;;;5019225;28;20026;-75
2021/09/10 10:31:47;;;;;;;1216.68;999.90;;;;;;;;;;5015162;28;20030;-76
2021/09/10 10:34:13;;;;;;;1207.55;999.90;;;;;;;;;;5008640;28;20041;-76
2021/09/10 10:36:39;;;;;;;1220.03;999.90;;;;;;;;;;5003093;28;20951;-75
2021/09/10 10:39:08;;;;;;;1221.97;999.90;;;;;;;;;;5008822;28;20102;-74
2021/09/10 10:41:50;;;;;;;1215.75;999.90;;;;;;;;;;5019764;28;20038;-75
2021/09/10 10:44:31;;;;;;;1209.90;999.90;;;;;;;;;;5008889;28;20054;-75
2021/09/10 10:47:09;;;;;;;1204.95;999.90;;;;;;;;;;5019103;28;20029;-75
2021/09/10 10:49:36;;;;;;;1207.88;999.90;;;;;;;;;;5005499;28;20065;-74
2021/09/10 10:52:22;;;;;;;1206.93;999.90;;;;;;;;;;5020974;28;20021;-74
2021/09/10 10:55:08;;;;;;;1206.95;999.90;;;;;;;;;;5012522;28;20124;-73
2021/09/10 10:57:35;;;;;;;1211.47;999.90;;;;;;;;;;5002486;28;20034;-75
2021/09/10 11:00:01;;;;;;;1212.10;999.90;;;;;;;;;;5011080;28;20049;-74
2021/09/10 11:02:31;;;;;;;1219.45;999.90;;;;;;;;;;5008579;28;20524;-74
2021/09/10 11:04:57;;;;;;;;;;;;;;;;;;5021886;28;20021;-73
2021/09/10 11:07:27;;;;;;;1210.05;999.90;;;;;;;;;;5021771;28;19978;-73
2021/09/10 11:10:16;;;;;;;1209.07;999.90;;;;;;;;;;4998716;28;20029;-73
2021/09/10 11:12:43;;;;;;;1217.72;999.90;;;;;;;;;;5015961;28;20022;-75
2021/09/10 11:15:26;;;;;;;1215.82;999.90;;;;;;;;;;5008001;28;20080;-74
2021/09/10 11:17:53;;;;;;;1213.28;999.90;;;;;;;;;;5019579;28;20033;-74
2021/09/10 11:20:24;;;;;;;1215.18;999.90;;;;;;;;;;5006605;28;20018;-73
2021/09/10 11:22:50;;;;;;;1217.47;999.90;;;;;;;;;;5014150;28;20045;-73
2021/09/10 11:25:16;;;;;;;1224.43;999.90;;;;;;;;;;5010277;28;20659;-74
2021/09/10 11:27:42;;;;;;;1223.63;999.90;;;;;;;;;;5021238;28;20057;-73
2021/09/10 11:30:13;;;;;;;1224.90;999.90;;;;;;;;;;5022570;28;20033;-73
2021/09/10 11:32:39;;;;;;;1218.18;999.90;;;;;;;;;;5017668;28;20030;-74
2021/09/10 11:35:17;;;;;;;1220.93;999.90;;;;;;;;;;5011286;28;20437;-75
2021/09/10 11:37:51;;;;;;;1224.57;999.90;;;;;;;;;;5016287;28;20572;-74
2021/09/10 11:40:28;;;;;;;1216.78;999.90;;;;;;;;;;5025265;28;20032;-74
2021/09/10 11:43:01;;;;;;;1225.85;999.90;;;;;;;;;;5021523;28;20037;-74
2021/09/10 11:45:30;;;;;;;1225.93;999.90;;;;;;;;;;5014132;28;20544;-74
2021/09/10 11:47:56;;;;;;;1239.88;999.90;;;;;;;;;;5025109;28;20026;-74
2021/09/10 11:50:23;;;;;;;1246.80;999.90;;;;;;;;;;5012570;28;20037;-73
2021/09/10 11:52:49;;;;;;;1270.78;999.90;;;;;;;;;;5011933;28;20104;-74
2021/09/10 11:55:16;;;;;;;1284.53;999.90;;;;;;;;;;5006729;28;20029;-74
2021/09/10 11:57:43;;;;;;;1282.68;999.90;;;;;;;;;;5024036;28;20026;-74
2021/09/10 12:00:35;;;;;;;1298.45;999.90;;;;;;;;;;5022058;28;20028;-74
2021/09/10 12:03:02;;;;;;;1296.07;999.90;;;;;;;;;;5017441;28;20554;-74
2021/09/10 12:05:28;;;;;;;1294.95;999.90;;;;;;;;;;5028647;28;20108;-75
2021/09/10 12:07:54;;;;;;;1304.35;999.90;;;;;;;;;;5012731;28;20033;-75
2021/09/10 12:10:32;;;;;;;1303.35;999.90;;;;;;;;;;5025881;28;20057;-75
2021/09/10 12:13:08;;;;;;;1295.68;999.90;;;;;;;;;;4998037;28;20038;-75
2021/09/10 12:15:34;;;;;;;1299.20;999.90;;;;;;;;;;5012985;28;20029;-74
2021/09/10 12:18:13;;;;;;;1314.18;999.90;;;;;;;;;;5012095;28;20034;-74
2021/09/10 12:20:40;;;;;;;1306.70;999.90;;;;;;;;;;5005873;28;20116;-74
2021/09/10 12:23:07;;;;;;;1311.72;999.90;;;;;;;;;;5017146;28;20125;-74
2021/09/10 12:25:33;;;;;;;1292.22;999.90;;;;;;;;;;5008058;28;20140;-74
2021/09/10 12:28:08;;;;;;;1273.47;999.90;;;;;;;;;;5024730;28;20021;-74
2021/09/10 12:30:36;;;;;;;1269.35;999.90;;;;;;;;;;5015945;28;20029;-75
2021/09/10 12:33:03;;;;;;;1266.28;999.90;;;;;;;;;;5027520;28;20025;-74
2021/09/10 12:35:29;;;;;;;1254.93;999.90;;;;;;;;;;5011807;28;20021;-74
2021/09/10 12:37:59;;;;;;;1247.57;999.90;;;;;;;;;;5022137;28;20029;-74
2021/09/10 12:40:26;;;;;;;1235.28;999.90;;;;;;;;;;5027319;28;20049;-74
2021/09/10 12:42:52;;;;;;;1233.53;999.90;;;;;;;;;;5028134;28;20477;-75
2021/09/10 12:45:18;;;;;;;1231.32;999.90;;;;;;;;;;5012146;28;20064;-75
2021/09/10 12:47:45;;;;;;;1221.10;999.90;;;;;;;;;;5026534;28;20536;-75
2021/09/10 12:50:11;;;;;;;1217.68;999.90;;;;;;;;;;5024532;28;20319;-75
2021/09/10 12:52:37;;;;;;;1216.25;999.90;;;;;;;;;;5002488;28;20444;-75
2021/09/10 12:55:04;;;;;;;1217.32;999.90;;;;;;;;;;5018314;28;20424;-74
2021/09/10 12:57:30;;;;;;;1207.28;999.90;;;;;;;;;;5024419;28;20117;-74
2021/09/10 12:59:56;;;;;;;1203.95;999.90;;;;;;;;;;5020994;28;20125;-75
2021/09/10 13:02:22;;;;;;;1204.60;999.90;;;;;;;;;;5002896;28;20034;-74
2021/09/10 13:04:48;;;;;;;1200.05;999.90;;;;;;;;;;5016309;28;20489;-75
2021/09/10 13:07:14;;;;;;;1190.95;999.90;;;;;;;;;;5020275;28;20367;-75
2021/09/10 13:09:40;;;;;;;1197.30;999.90;;;;;;;;;;5006303;28;20025;-75
2021/09/10 13:12:06;;;;;;;1198.32;999.90;;;;;;;;;;5027091;28;20033;-75
2021/09/10 13:14:32;;;;;;;1186.75;999.90;;;;;;;;;;5005496;28;20080;-75
2021/09/10 13:16:58;;;;;;;1187.18;999.90;;;;;;;;;;5012861;28;20152;-76
2021/09/10 13:19:24;;;;;;;1193.80;999.90;;;;;;;;;;5010078;28;20358;-76
2021/09/10 13:21:50;;;;;;;1188.93;999.90;;;;;;;;;;5018794;28;20406;-76
2021/09/10 13:24:20;;;;;;;1187.88;999.90;;;;;;;;;;5006970;28;20029;-76
2021/09/10 13:26:47;;;;;;;1179.10;999.90;;;;;;;;;;5019164;28;20531;-75
2021/09/10 13:29:14;;;;;;;1180.38;999.90;;;;;;;;;;5005738;28;20402;-74
2021/09/10 13:31:43;;;;;;;1187.88;999.90;;;;;;;;;;5018017;28;20029;-74
2021/09/10 13:34:10;;;;;;;1178.78;999.90;;;;;;;;;;5022106;28;20033;-74
2021/09/10 13:36:36;;;;;;;1179.20;999.90;;;;;;;;;;5002045;28;20538;-74
2021/09/10 13:39:02;;;;;;;1175.38;999.90;;;;;;;;;;5014047;28;20112;-75
2021/09/10 13:41:28;;;;;;;1165.15;999.90;;;;;;;;;;5026283;28;20552;-76
2021/09/10 13:43:54;;;;;;;1165.20;999.90;;;;;;;;;;5014343;28;20100;-75